sensor_id;sensor_type;location;lat;lon;timestamp;P1;durP1;ratioP1;P2;durP2;ratioP2
75090;SDS011;63674;48.048;8.306;2024-02-21T00:01:18;11.95;;;3.67;;
75090;SDS011;63674;48.048;8.306;2024-02-21T00:03:49;11.48;;;3.40;;
75090;SDS011;63674;48.048;8.306;2024-02-21T00:06:19;12.00;;;3.88;;
75090;SDS011;63674;48.048;8.306;2024-02-21T00:08:48;10.27;;;3.90;;
75090;SDS011;63674;48.048;8.306;2024-02-21T00:11:17;12.43;;;4.20;;
75090;SDS011;63674;48.048;8.306;2024-02-21T00:13:45;12.57;;;3.92;;
75090;SDS011;63674;48.048;8.306;2024-02-21T00:16:14;14.07;;;4.60;;
75090;SDS011;63674;48.048;8.306;2024-02-21T00:18:43;9.07;;;3.50;;
75090;SDS011;63674;48.048;8.306;2024-02-21T00:21:11;13.27;;;4.15;;
75090;SDS011;63674;48.048;8.306;2024-02-21T00:23:45;13.80;;;4.70;;
75090;SDS011;63674;48.048;8.306;2024-02-21T00:26:15;13.50;;;4.90;;
75090;SDS011;63674;48.048;8.306;2024-02-21T00:28:44;11.55;;;4.30;;
75090;SDS011;63674;48.048;8.306;2024-02-21T00:31:13;15.05;;;4.55;;
75090;SDS011;63674;48.048;8.306;2024-02-21T00:33:41;13.27;;;3.78;;
75090;SDS011;63674;48.048;8.306;2024-02-21T00:36:10;11.48;;;4.30;;
75090;SDS011;63674;48.048;8.306;2024-02-21T00:38:38;13.13;;;4.22;;
75090;SDS011;63674;48.048;8.306;2024-02-21T00:41:08;10.82;;;4.10;;
75090;SDS011;63674;48.048;8.306;2024-02-21T00:43:37;10.38;;;4.72;;
75090;SDS011;63674;48.048;8.306;2024-02-21T00:46:05;10.65;;;4.30;;
75090;SDS011;63674;48.048;8.306;2024-02-21T00:48:34;13.07;;;4.47;;
75090;SDS011;63674;48.048;8.306;2024-02-21T00:51:03;13.63;;;4.50;;
75090;SDS011;63674;48.048;8.306;2024-02-21T00:53:32;12.50;;;4.35;;
75090;SDS011;63674;48.048;8.306;2024-02-21T00:56:00;13.02;;;4.32;;
75090;SDS011;63674;48.048;8.306;2024-02-21T00:58:30;13.65;;;3.78;;
75090;SDS011;63674;48.048;8.306;2024-02-21T01:01:00;15.77;;;4.28;;
75090;SDS011;63674;48.048;8.306;2024-02-21T01:03:29;9.93;;;3.55;;
75090;SDS011;63674;48.048;8.306;2024-02-21T01:05:58;10.80;;;3.92;;
75090;SDS011;63674;48.048;8.306;2024-02-21T01:08:26;13.98;;;4.20;;
75090;SDS011;63674;48.048;8.306;2024-02-21T01:10:55;13.55;;;4.53;;
75090;SDS011;63674;48.048;8.306;2024-02-21T01:13:24;10.88;;;3.78;;
75090;SDS011;63674;48.048;8.306;2024-02-21T01:15:54;9.43;;;2.90;;
75090;SDS011;63674;48.048;8.306;2024-02-21T01:18:22;12.02;;;3.25;;
75090;SDS011;63674;48.048;8.306;2024-02-21T01:20:51;9.68;;;2.83;;
75090;SDS011;63674;48.048;8.306;2024-02-21T01:23:20;11.35;;;2.90;;
75090;SDS011;63674;48.048;8.306;2024-02-21T01:25:48;11.95;;;3.80;;
75090;SDS011;63674;48.048;8.306;2024-02-21T01:28:17;9.27;;;2.92;;
75090;SDS011;63674;48.048;8.306;2024-02-21T01:30:48;13.93;;;3.45;;
75090;SDS011;63674;48.048;8.306;2024-02-21T01:33:18;10.23;;;3.20;;
75090;SDS011;63674;48.048;8.306;2024-02-21T01:35:46;9.20;;;3.38;;
75090;SDS011;63674;48.048;8.306;2024-02-21T01:38:16;12.38;;;3.30;;
75090;SDS011;63674;48.048;8.306;2024-02-21T01:40:44;7.65;;;2.80;;
75090;SDS011;63674;48.048;8.306;2024-02-21T01:43:16;8.95;;;2.90;;
75090;SDS011;63674;48.048;8.306;2024-02-21T01:45:49;10.32;;;3.42;;
75090;SDS011;63674;48.048;8.306;2024-02-21T01:48:21;10.32;;;3.45;;
75090;SDS011;63674;48.048;8.306;2024-02-21T01:50:52;16.10;;;5.63;;
75090;SDS011;63674;48.048;8.306;2024-02-21T01:53:22;16.73;;;5.40;;
75090;SDS011;63674;48.048;8.306;2024-02-21T01:55:55;14.05;;;5.18;;
75090;SDS011;63674;48.048;8.306;2024-02-21T01:58:24;23.00;;;5.90;;
75090;SDS011;63674;48.048;8.306;2024-02-21T02:00:54;16.13;;;5.10;;
75090;SDS011;63674;48.048;8.306;2024-02-21T02:03:26;10.45;;;3.65;;
75090;SDS011;63674;48.048;8.306;2024-02-21T02:05:55;13.48;;;4.05;;
75090;SDS011;63674;48.048;8.306;2024-02-21T02:08:23;13.13;;;3.85;;
75090;SDS011;63674;48.048;8.306;2024-02-21T02:10:52;15.18;;;4.70;;
75090;SDS011;63674;48.048;8.306;2024-02-21T02:13:21;14.32;;;4.38;;
75090;SDS011;63674;48.048;8.306;2024-02-21T02:15:49;11.48;;;3.47;;
75090;SDS011;63674;48.048;8.306;2024-02-21T02:18:19;11.55;;;3.83;;
75090;SDS011;63674;48.048;8.306;2024-02-21T02:20:49;11.18;;;3.90;;
75090;SDS011;63674;48.048;8.306;2024-02-21T02:23:21;10.35;;;3.22;;
75090;SDS011;63674;48.048;8.306;2024-02-21T02:25:52;9.23;;;3.38;;
75090;SDS011;63674;48.048;8.306;2024-02-21T02:28:21;8.73;;;3.47;;
75090;SDS011;63674;48.048;8.306;2024-02-21T02:30:50;10.63;;;3.63;;
75090;SDS011;63674;48.048;8.306;2024-02-21T02:33:19;8.93;;;3.03;;
75090;SDS011;63674;48.048;8.306;2024-02-21T02:35:47;8.77;;;2.92;;
75090;SDS011;63674;48.048;8.306;2024-02-21T02:38:16;9.25;;;3.50;;
75090;SDS011;63674;48.048;8.306;2024-02-21T02:41:04;9.10;;;3.08;;
75090;SDS011;63674;48.048;8.306;2024-02-21T02:43:51;12.25;;;3.33;;
75090;SDS011;63674;48.048;8.306;2024-02-21T02:46:40;8.70;;;3.15;;
75090;SDS011;63674;48.048;8.306;2024-02-21T02:49:27;9.27;;;3.38;;
75090;SDS011;63674;48.048;8.306;2024-02-21T02:52:14;9.00;;;2.67;;
75090;SDS011;63674;48.048;8.306;2024-02-21T02:55:01;8.18;;;2.63;;
75090;SDS011;63674;48.048;8.306;2024-02-21T02:57:50;11.95;;;3.65;;
75090;SDS011;63674;48.048;8.306;2024-02-21T03:00:37;9.82;;;3.60;;
75090;SDS011;63674;48.048;8.306;2024-02-21T03:03:24;10.32;;;3.53;;
75090;SDS011;63674;48.048;8.306;2024-02-21T03:06:12;14.60;;;4.38;;
75090;SDS011;63674;48.048;8.306;2024-02-21T03:09:00;11.35;;;3.50;;
75090;SDS011;63674;48.048;8.306;2024-02-21T03:11:47;15.27;;;3.22;;
75090;SDS011;63674;48.048;8.306;2024-02-21T03:14:35;11.13;;;2.67;;
75090;SDS011;63674;48.048;8.306;2024-02-21T03:17:22;9.43;;;2.63;;
75090;SDS011;63674;48.048;8.306;2024-02-21T03:20:11;8.10;;;2.20;;
75090;SDS011;63674;48.048;8.306;2024-02-21T03:22:59;9.10;;;2.60;;
75090;SDS011;63674;48.048;8.306;2024-02-21T03:25:46;9.88;;;3.35;;
75090;SDS011;63674;48.048;8.306;2024-02-21T03:28:33;10.98;;;3.55;;
75090;SDS011;63674;48.048;8.306;2024-02-21T03:31:22;14.13;;;4.68;;
75090;SDS011;63674;48.048;8.306;2024-02-21T03:34:15;14.88;;;4.32;;
75090;SDS011;63674;48.048;8.306;2024-02-21T03:37:03;17.25;;;5.03;;
75090;SDS011;63674;48.048;8.306;2024-02-21T03:39:50;13.70;;;4.65;;
75090;SDS011;63674;48.048;8.306;2024-02-21T03:42:37;13.77;;;4.72;;
75090;SDS011;63674;48.048;8.306;2024-02-21T03:45:24;13.25;;;4.63;;
75090;SDS011;63674;48.048;8.306;2024-02-21T03:48:13;15.23;;;4.63;;
75090;SDS011;63674;48.048;8.306;2024-02-21T03:51:00;13.45;;;4.60;;
75090;SDS011;63674;48.048;8.306;2024-02-21T03:53:47;15.40;;;5.03;;
75090;SDS011;63674;48.048;8.306;2024-02-21T03:56:16;12.30;;;3.78;;
75090;SDS011;63674;48.048;8.306;2024-02-21T03:58:44;11.63;;;4.03;;
75090;SDS011;63674;48.048;8.306;2024-02-21T04:01:15;13.32;;;5.10;;
75090;SDS011;63674;48.048;8.306;2024-02-21T04:03:45;20.05;;;6.18;;
75090;SDS011;63674;48.048;8.306;2024-02-21T04:06:14;24.05;;;8.00;;
75090;SDS011;63674;48.048;8.306;2024-02-21T04:08:42;27.17;;;8.43;;
75090;SDS011;63674;48.048;8.306;2024-02-21T04:11:11;21.90;;;7.95;;
75090;SDS011;63674;48.048;8.306;2024-02-21T04:13:40;26.35;;;8.40;;
75090;SDS011;63674;48.048;8.306;2024-02-21T04:16:08;22.35;;;7.57;;
75090;SDS011;63674;48.048;8.306;2024-02-21T04:18:37;20.55;;;7.72;;
75090;SDS011;63674;48.048;8.306;2024-02-21T04:21:08;17.63;;;6.72;;
75090;SDS011;63674;48.048;8.306;2024-02-21T04:23:40;18.92;;;6.50;;
75090;SDS011;63674;48.048;8.306;2024-02-21T04:26:08;19.92;;;5.97;;
75090;SDS011;63674;48.048;8.306;2024-02-21T04:28:37;16.63;;;6.38;;
75090;SDS011;63674;48.048;8.306;2024-02-21T04:31:06;19.40;;;5.72;;
75090;SDS011;63674;48.048;8.306;2024-02-21T04:33:34;15.30;;;4.22;;
75090;SDS011;63674;48.048;8.306;2024-02-21T04:36:03;13.52;;;4.00;;
75090;SDS011;63674;48.048;8.306;2024-02-21T04:38:34;14.07;;;4.88;;
75090;SDS011;63674;48.048;8.306;2024-02-21T04:41:02;14.95;;;5.30;;
75090;SDS011;63674;48.048;8.306;2024-02-21T04:43:31;12.55;;;5.20;;
75090;SDS011;63674;48.048;8.306;2024-02-21T04:46:00;12.80;;;4.05;;
75090;SDS011;63674;48.048;8.306;2024-02-21T04:48:28;11.85;;;4.32;;
75090;SDS011;63674;48.048;8.306;2024-02-21T04:50:57;11.50;;;3.92;;
75090;SDS011;63674;48.048;8.306;2024-02-21T04:53:26;13.32;;;4.10;;
75090;SDS011;63674;48.048;8.306;2024-02-21T04:55:56;13.52;;;3.85;;
75090;SDS011;63674;48.048;8.306;2024-02-21T04:58:25;14.77;;;5.10;;
75090;SDS011;63674;48.048;8.306;2024-02-21T05:00:54;17.98;;;4.65;;
75090;SDS011;63674;48.048;8.306;2024-02-21T05:03:22;14.52;;;4.65;;
75090;SDS011;63674;48.048;8.306;2024-02-21T05:05:51;14.80;;;4.95;;
75090;SDS011;63674;48.048;8.306;2024-02-21T05:08:19;13.55;;;4.30;;
75090;SDS011;63674;48.048;8.306;2024-02-21T05:10:48;11.65;;;4.57;;
75090;SDS011;63674;48.048;8.306;2024-02-21T05:13:18;13.82;;;5.15;;
75090;SDS011;63674;48.048;8.306;2024-02-21T05:15:47;12.05;;;3.90;;
75090;SDS011;63674;48.048;8.306;2024-02-21T05:18:15;10.80;;;3.67;;
75090;SDS011;63674;48.048;8.306;2024-02-21T05:20:44;13.93;;;4.10;;
75090;SDS011;63674;48.048;8.306;2024-02-21T05:23:13;14.30;;;4.50;;
75090;SDS011;63674;48.048;8.306;2024-02-21T05:25:41;10.38;;;3.95;;
75090;SDS011;63674;48.048;8.306;2024-02-21T05:28:10;9.68;;;4.03;;
75090;SDS011;63674;48.048;8.306;2024-02-21T05:30:40;9.65;;;3.58;;
75090;SDS011;63674;48.048;8.306;2024-02-21T05:33:09;8.68;;;3.20;;
75090;SDS011;63674;48.048;8.306;2024-02-21T05:35:39;9.85;;;3.00;;
75090;SDS011;63674;48.048;8.306;2024-02-21T05:38:08;9.13;;;3.00;;
75090;SDS011;63674;48.048;8.306;2024-02-21T05:40:38;8.10;;;2.90;;
75090;SDS011;63674;48.048;8.306;2024-02-21T05:43:07;7.90;;;2.65;;
75090;SDS011;63674;48.048;8.306;2024-02-21T05:45:36;9.77;;;3.13;;
75090;SDS011;63674;48.048;8.306;2024-02-21T05:48:07;8.25;;;2.63;;
75090;SDS011;63674;48.048;8.306;2024-02-21T05:50:35;7.72;;;3.13;;
75090;SDS011;63674;48.048;8.306;2024-02-21T05:53:04;10.93;;;2.45;;
75090;SDS011;63674;48.048;8.306;2024-02-21T05:55:33;7.95;;;2.53;;
75090;SDS011;63674;48.048;8.306;2024-02-21T05:58:01;8.23;;;2.63;;
75090;SDS011;63674;48.048;8.306;2024-02-21T06:00:30;10.00;;;2.78;;
75090;SDS011;63674;48.048;8.306;2024-02-21T06:02:59;6.57;;;2.17;;
75090;SDS011;63674;48.048;8.306;2024-02-21T06:05:29;7.95;;;2.50;;
75090;SDS011;63674;48.048;8.306;2024-02-21T06:07:58;8.77;;;3.13;;
75090;SDS011;63674;48.048;8.306;2024-02-21T06:10:27;8.43;;;2.95;;
75090;SDS011;63674;48.048;8.306;2024-02-21T06:12:55;9.90;;;3.25;;
75090;SDS011;63674;48.048;8.306;2024-02-21T06:15:24;9.35;;;3.38;;
75090;SDS011;63674;48.048;8.306;2024-02-21T06:17:52;9.88;;;3.63;;
75090;SDS011;63674;48.048;8.306;2024-02-21T06:20:21;15.50;;;4.22;;
75090;SDS011;63674;48.048;8.306;2024-02-21T06:22:51;8.07;;;3.00;;
75090;SDS011;63674;48.048;8.306;2024-02-21T06:25:21;30.85;;;3.55;;
75090;SDS011;63674;48.048;8.306;2024-02-21T06:27:49;84.75;;;5.97;;
75090;SDS011;63674;48.048;8.306;2024-02-21T06:30:18;89.43;;;6.35;;
75090;SDS011;63674;48.048;8.306;2024-02-21T06:32:47;164.93;;;7.10;;
75090;SDS011;63674;48.048;8.306;2024-02-21T06:35:15;129.87;;;5.90;;
75090;SDS011;63674;48.048;8.306;2024-02-21T06:37:44;51.50;;;4.30;;
75090;SDS011;63674;48.048;8.306;2024-02-21T06:40:20;15.70;;;3.30;;
75090;SDS011;63674;48.048;8.306;2024-02-21T06:42:50;42.47;;;4.03;;
75090;SDS011;63674;48.048;8.306;2024-02-21T06:45:19;14.18;;;3.13;;
75090;SDS011;63674;48.048;8.306;2024-02-21T06:47:47;32.47;;;3.75;;
75090;SDS011;63674;48.048;8.306;2024-02-21T06:50:16;47.47;;;4.65;;
75090;SDS011;63674;48.048;8.306;2024-02-21T06:52:44;58.75;;;6.57;;
75090;SDS011;63674;48.048;8.306;2024-02-21T06:55:13;65.13;;;6.18;;
75090;SDS011;63674;48.048;8.306;2024-02-21T06:57:44;66.15;;;6.45;;
75090;SDS011;63674;48.048;8.306;2024-02-21T07:00:15;94.07;;;7.07;;
75090;SDS011;63674;48.048;8.306;2024-02-21T07:02:47;185.02;;;11.75;;
75090;SDS011;63674;48.048;8.306;2024-02-21T07:05:17;166.45;;;11.55;;
75090;SDS011;63674;48.048;8.306;2024-02-21T07:07:46;159.27;;;14.88;;
75090;SDS011;63674;48.048;8.306;2024-02-21T07:10:15;216.70;;;16.95;;
75090;SDS011;63674;48.048;8.306;2024-02-21T07:12:45;147.15;;;12.82;;
75090;SDS011;63674;48.048;8.306;2024-02-21T07:15:13;85.72;;;12.45;;
75090;SDS011;63674;48.048;8.306;2024-02-21T07:17:42;66.75;;;12.57;;
75090;SDS011;63674;48.048;8.306;2024-02-21T07:20:10;87.97;;;12.85;;
75090;SDS011;63674;48.048;8.306;2024-02-21T07:22:39;32.20;;;7.05;;
75090;SDS011;63674;48.048;8.306;2024-02-21T07:25:08;39.35;;;5.45;;
75090;SDS011;63674;48.048;8.306;2024-02-21T07:27:37;39.22;;;6.18;;
75090;SDS011;63674;48.048;8.306;2024-02-21T07:30:08;29.27;;;5.43;;
75090;SDS011;63674;48.048;8.306;2024-02-21T07:32:41;32.55;;;5.40;;
75090;SDS011;63674;48.048;8.306;2024-02-21T07:35:10;83.93;;;7.50;;
75090;SDS011;63674;48.048;8.306;2024-02-21T07:37:39;30.60;;;5.60;;
75090;SDS011;63674;48.048;8.306;2024-02-21T07:40:12;33.47;;;4.82;;
75090;SDS011;63674;48.048;8.306;2024-02-21T07:42:41;16.55;;;4.32;;
75090;SDS011;63674;48.048;8.306;2024-02-21T07:45:18;9.25;;;3.83;;
75090;SDS011;63674;48.048;8.306;2024-02-21T07:47:50;16.95;;;4.95;;
75090;SDS011;63674;48.048;8.306;2024-02-21T07:50:19;16.90;;;5.47;;
75090;SDS011;63674;48.048;8.306;2024-02-21T07:52:47;11.05;;;4.68;;
75090;SDS011;63674;48.048;8.306;2024-02-21T07:55:16;15.65;;;4.93;;
75090;SDS011;63674;48.048;8.306;2024-02-21T07:57:45;17.17;;;5.20;;
75090;SDS011;63674;48.048;8.306;2024-02-21T08:00:14;13.32;;;4.90;;
75090;SDS011;63674;48.048;8.306;2024-02-21T08:02:48;16.60;;;5.32;;
75090;SDS011;63674;48.048;8.306;2024-02-21T08:05:17;13.60;;;5.10;;
75090;SDS011;63674;48.048;8.306;2024-02-21T08:07:48;13.60;;;5.20;;
75090;SDS011;63674;48.048;8.306;2024-02-21T08:10:16;14.65;;;5.20;;
75090;SDS011;63674;48.048;8.306;2024-02-21T08:12:45;12.13;;;5.18;;
75090;SDS011;63674;48.048;8.306;2024-02-21T08:15:14;13.93;;;4.82;;
75090;SDS011;63674;48.048;8.306;2024-02-21T08:17:42;11.95;;;4.75;;
75090;SDS011;63674;48.048;8.306;2024-02-21T08:20:12;12.60;;;4.93;;
75090;SDS011;63674;48.048;8.306;2024-02-21T08:22:42;12.18;;;4.90;;
75090;SDS011;63674;48.048;8.306;2024-02-21T08:25:10;10.70;;;4.65;;
75090;SDS011;63674;48.048;8.306;2024-02-21T08:27:39;15.60;;;6.67;;
75090;SDS011;63674;48.048;8.306;2024-02-21T08:30:08;13.35;;;5.63;;
75090;SDS011;63674;48.048;8.306;2024-02-21T08:32:38;14.10;;;5.28;;
75090;SDS011;63674;48.048;8.306;2024-02-21T08:35:07;11.65;;;5.38;;
75090;SDS011;63674;48.048;8.306;2024-02-21T08:37:37;13.63;;;5.03;;
75090;SDS011;63674;48.048;8.306;2024-02-21T08:40:06;12.10;;;4.20;;
75090;SDS011;63674;48.048;8.306;2024-02-21T08:42:36;13.52;;;4.32;;
75090;SDS011;63674;48.048;8.306;2024-02-21T08:45:07;14.98;;;5.95;;
75090;SDS011;63674;48.048;8.306;2024-02-21T08:47:39;15.57;;;6.00;;
75090;SDS011;63674;48.048;8.306;2024-02-21T08:50:08;12.18;;;5.18;;
75090;SDS011;63674;48.048;8.306;2024-02-21T08:52:54;14.80;;;5.82;;
75090;SDS011;63674;48.048;8.306;2024-02-21T08:55:23;14.25;;;5.82;;
75090;SDS011;63674;48.048;8.306;2024-02-21T08:57:52;14.82;;;5.35;;
75090;SDS011;63674;48.048;8.306;2024-02-21T09:00:21;15.93;;;6.78;;
75090;SDS011;63674;48.048;8.306;2024-02-21T09:02:54;16.30;;;8.57;;
75090;SDS011;63674;48.048;8.306;2024-02-21T09:05:23;17.88;;;8.13;;
75090;SDS011;63674;48.048;8.306;2024-02-21T09:07:54;13.15;;;6.78;;
75090;SDS011;63674;48.048;8.306;2024-02-21T09:10:22;12.52;;;5.90;;
75090;SDS011;63674;48.048;8.306;2024-02-21T09:12:52;15.18;;;6.45;;
75090;SDS011;63674;48.048;8.306;2024-02-21T09:15:20;13.93;;;6.13;;
75090;SDS011;63674;48.048;8.306;2024-02-21T09:17:50;10.35;;;4.63;;
75090;SDS011;63674;48.048;8.306;2024-02-21T09:20:19;12.00;;;4.90;;
75090;SDS011;63674;48.048;8.306;2024-02-21T09:22:48;15.02;;;5.25;;
75090;SDS011;63674;48.048;8.306;2024-02-21T09:25:18;10.70;;;4.68;;
75090;SDS011;63674;48.048;8.306;2024-02-21T09:27:47;13.40;;;5.72;;
75090;SDS011;63674;48.048;8.306;2024-02-21T09:30:15;12.52;;;6.15;;
75090;SDS011;63674;48.048;8.306;2024-02-21T09:32:45;11.43;;;5.90;;
75090;SDS011;63674;48.048;8.306;2024-02-21T09:35:14;11.13;;;5.50;;
75090;SDS011;63674;48.048;8.306;2024-02-21T09:37:43;11.63;;;5.30;;
75090;SDS011;63674;48.048;8.306;2024-02-21T09:40:12;13.70;;;5.40;;
75090;SDS011;63674;48.048;8.306;2024-02-21T09:42:46;12.95;;;6.18;;
75090;SDS011;63674;48.048;8.306;2024-02-21T09:45:19;12.48;;;5.75;;
75090;SDS011;63674;48.048;8.306;2024-02-21T09:47:56;12.40;;;6.18;;
75090;SDS011;63674;48.048;8.306;2024-02-21T09:50:56;12.52;;;5.63;;
75090;SDS011;63674;48.048;8.306;2024-02-21T09:53:27;12.02;;;5.57;;
75090;SDS011;63674;48.048;8.306;2024-02-21T09:55:56;9.65;;;4.43;;
75090;SDS011;63674;48.048;8.306;2024-02-21T09:58:27;12.43;;;5.03;;
75090;SDS011;63674;48.048;8.306;2024-02-21T10:00:55;11.73;;;5.40;;
75090;SDS011;63674;48.048;8.306;2024-02-21T10:03:29;13.43;;;6.63;;
75090;SDS011;63674;48.048;8.306;2024-02-21T10:05:59;11.60;;;6.00;;
75090;SDS011;63674;48.048;8.306;2024-02-21T10:08:28;14.57;;;6.73;;
75090;SDS011;63674;48.048;8.306;2024-02-21T10:10:57;13.60;;;6.45;;
75090;SDS011;63674;48.048;8.306;2024-02-21T10:13:29;19.73;;;8.90;;
75090;SDS011;63674;48.048;8.306;2024-02-21T10:16:05;15.35;;;5.90;;
75090;SDS011;63674;48.048;8.306;2024-02-21T10:18:35;21.23;;;9.32;;
75090;SDS011;63674;48.048;8.306;2024-02-21T10:21:05;8.93;;;3.00;;
75090;SDS011;63674;48.048;8.306;2024-02-21T10:23:41;7.75;;;2.40;;
75090;SDS011;63674;48.048;8.306;2024-02-21T10:26:11;14.10;;;5.72;;
75090;SDS011;63674;48.048;8.306;2024-02-21T10:28:41;7.57;;;2.63;;
75090;SDS011;63674;48.048;8.306;2024-02-21T10:31:11;10.43;;;3.58;;
75090;SDS011;63674;48.048;8.306;2024-02-21T10:33:54;9.23;;;3.73;;
75090;SDS011;63674;48.048;8.306;2024-02-21T10:36:24;9.85;;;3.85;;
75090;SDS011;63674;48.048;8.306;2024-02-21T10:38:53;9.60;;;2.80;;
75090;SDS011;63674;48.048;8.306;2024-02-21T10:41:23;9.40;;;3.05;;
75090;SDS011;63674;48.048;8.306;2024-02-21T10:43:55;7.32;;;2.50;;
75090;SDS011;63674;48.048;8.306;2024-02-21T10:46:24;10.53;;;4.20;;
75090;SDS011;63674;48.048;8.306;2024-02-21T10:48:56;11.13;;;4.18;;
75090;SDS011;63674;48.048;8.306;2024-02-21T10:51:34;10.35;;;3.58;;
75090;SDS011;63674;48.048;8.306;2024-02-21T10:54:12;9.40;;;3.30;;
75090;SDS011;63674;48.048;8.306;2024-02-21T10:56:54;11.77;;;3.67;;
75090;SDS011;63674;48.048;8.306;2024-02-21T10:59:27;6.60;;;2.50;;
75090;SDS011;63674;48.048;8.306;2024-02-21T11:01:58;8.65;;;3.03;;
75090;SDS011;63674;48.048;8.306;2024-02-21T11:04:27;8.93;;;3.97;;
75090;SDS011;63674;48.048;8.306;2024-02-21T11:06:58;6.35;;;2.40;;
75090;SDS011;63674;48.048;8.306;2024-02-21T11:09:30;5.85;;;1.60;;
75090;SDS011;63674;48.048;8.306;2024-02-21T11:12:01;6.03;;;1.63;;
75090;SDS011;63674;48.048;8.306;2024-02-21T11:14:33;8.43;;;2.30;;
75090;SDS011;63674;48.048;8.306;2024-02-21T11:17:13;9.07;;;3.30;;
75090;SDS011;63674;48.048;8.306;2024-02-21T11:19:43;7.60;;;2.53;;
75090;SDS011;63674;48.048;8.306;2024-02-21T11:22:15;6.68;;;2.50;;
75090;SDS011;63674;48.048;8.306;2024-02-21T11:24:46;3.97;;;1.07;;
75090;SDS011;63674;48.048;8.306;2024-02-21T11:27:15;3.70;;;0.80;;
75090;SDS011;63674;48.048;8.306;2024-02-21T11:29:49;3.50;;;0.85;;
75090;SDS011;63674;48.048;8.306;2024-02-21T11:32:22;4.70;;;1.10;;
75090;SDS011;63674;48.048;8.306;2024-02-21T11:34:53;5.85;;;0.80;;
75090;SDS011;63674;48.048;8.306;2024-02-21T11:37:24;3.57;;;0.67;;
75090;SDS011;63674;48.048;8.306;2024-02-21T11:39:54;3.22;;;0.70;;
75090;SDS011;63674;48.048;8.306;2024-02-21T11:42:24;5.18;;;1.00;;
75090;SDS011;63674;48.048;8.306;2024-02-21T11:44:55;3.20;;;0.70;;
75090;SDS011;63674;48.048;8.306;2024-02-21T11:47:24;3.28;;;0.60;;
75090;SDS011;63674;48.048;8.306;2024-02-21T11:49:53;3.33;;;0.80;;
75090;SDS011;63674;48.048;8.306;2024-02-21T11:52:22;3.17;;;0.70;;
75090;SDS011;63674;48.048;8.306;2024-02-21T11:54:53;4.32;;;0.75;;
75090;SDS011;63674;48.048;8.306;2024-02-21T11:57:24;4.57;;;0.77;;
75090;SDS011;63674;48.048;8.306;2024-02-21T11:59:53;3.30;;;0.70;;
75090;SDS011;63674;48.048;8.306;2024-02-21T12:02:26;2.50;;;0.40;;
75090;SDS011;63674;48.048;8.306;2024-02-21T12:04:55;3.17;;;0.40;;
75090;SDS011;63674;48.048;8.306;2024-02-21T12:07:24;3.30;;;0.68;;
75090;SDS011;63674;48.048;8.306;2024-02-21T12:09:58;4.72;;;2.22;;
75090;SDS011;63674;48.048;8.306;2024-02-21T12:12:27;6.70;;;3.72;;
75090;SDS011;63674;48.048;8.306;2024-02-21T12:14:58;4.43;;;1.90;;
75090;SDS011;63674;48.048;8.306;2024-02-21T12:17:26;7.07;;;3.17;;
75090;SDS011;63674;48.048;8.306;2024-02-21T12:19:55;3.72;;;1.00;;
75090;SDS011;63674;48.048;8.306;2024-02-21T12:22:25;3.97;;;1.30;;
75090;SDS011;63674;48.048;8.306;2024-02-21T12:24:54;4.00;;;1.20;;
75090;SDS011;63674;48.048;8.306;2024-02-21T12:27:23;4.07;;;0.50;;
75090;SDS011;63674;48.048;8.306;2024-02-21T12:29:53;4.20;;;1.20;;
75090;SDS011;63674;48.048;8.306;2024-02-21T12:32:22;3.38;;;0.80;;
75090;SDS011;63674;48.048;8.306;2024-02-21T12:34:51;3.58;;;0.80;;
75090;SDS011;63674;48.048;8.306;2024-02-21T12:37:21;8.07;;;0.70;;
75090;SDS011;63674;48.048;8.306;2024-02-21T12:39:50;3.10;;;0.67;;
75090;SDS011;63674;48.048;8.306;2024-02-21T12:42:19;3.72;;;0.65;;
75090;SDS011;63674;48.048;8.306;2024-02-21T12:44:47;2.80;;;0.50;;
75090;SDS011;63674;48.048;8.306;2024-02-21T12:47:16;2.85;;;0.55;;
75090;SDS011;63674;48.048;8.306;2024-02-21T12:49:47;3.33;;;0.77;;
75090;SDS011;63674;48.048;8.306;2024-02-21T12:52:16;4.40;;;1.47;;
75090;SDS011;63674;48.048;8.306;2024-02-21T12:54:44;3.10;;;0.70;;
75090;SDS011;63674;48.048;8.306;2024-02-21T12:57:13;3.80;;;0.50;;
75090;SDS011;63674;48.048;8.306;2024-02-21T12:59:42;5.60;;;2.38;;
75090;SDS011;63674;48.048;8.306;2024-02-21T13:02:11;48.97;;;25.15;;
75090;SDS011;63674;48.048;8.306;2024-02-21T13:04:40;5.43;;;1.80;;
75090;SDS011;63674;48.048;8.306;2024-02-21T13:07:09;5.80;;;2.42;;
75090;SDS011;63674;48.048;8.306;2024-02-21T13:09:38;6.75;;;1.80;;
75090;SDS011;63674;48.048;8.306;2024-02-21T13:12:07;3.67;;;0.80;;
75090;SDS011;63674;48.048;8.306;2024-02-21T13:14:36;5.45;;;1.65;;
75090;SDS011;63674;48.048;8.306;2024-02-21T13:17:05;3.30;;;0.70;;
75090;SDS011;63674;48.048;8.306;2024-02-21T13:19:34;3.10;;;0.52;;
75090;SDS011;63674;48.048;8.306;2024-02-21T13:22:03;4.38;;;1.40;;
75090;SDS011;63674;48.048;8.306;2024-02-21T13:24:33;3.70;;;1.10;;
75090;SDS011;63674;48.048;8.306;2024-02-21T13:27:02;4.00;;;1.20;;
75090;SDS011;63674;48.048;8.306;2024-02-21T13:29:30;3.30;;;0.87;;
75090;SDS011;63674;48.048;8.306;2024-02-21T13:31:59;3.90;;;1.10;;
75090;SDS011;63674;48.048;8.306;2024-02-21T13:34:28;5.32;;;1.70;;
75090;SDS011;63674;48.048;8.306;2024-02-21T13:36:57;4.30;;;1.00;;
75090;SDS011;63674;48.048;8.306;2024-02-21T13:39:27;4.57;;;1.67;;
75090;SDS011;63674;48.048;8.306;2024-02-21T13:41:57;4.70;;;1.77;;
75090;SDS011;63674;48.048;8.306;2024-02-21T13:44:25;4.35;;;1.40;;
75090;SDS011;63674;48.048;8.306;2024-02-21T13:46:54;3.83;;;1.00;;
75090;SDS011;63674;48.048;8.306;2024-02-21T13:49:22;4.43;;;1.20;;
75090;SDS011;63674;48.048;8.306;2024-02-21T13:51:51;4.65;;;1.50;;
75090;SDS011;63674;48.048;8.306;2024-02-21T13:54:20;4.40;;;0.70;;
75090;SDS011;63674;48.048;8.306;2024-02-21T13:56:49;3.90;;;0.95;;
75090;SDS011;63674;48.048;8.306;2024-02-21T13:59:19;7.63;;;1.90;;
75090;SDS011;63674;48.048;8.306;2024-02-21T14:01:48;4.53;;;1.15;;
75090;SDS011;63674;48.048;8.306;2024-02-21T14:04:17;3.35;;;0.75;;
75090;SDS011;63674;48.048;8.306;2024-02-21T14:06:46;3.80;;;0.97;;
75090;SDS011;63674;48.048;8.306;2024-02-21T14:09:15;5.28;;;1.20;;
75090;SDS011;63674;48.048;8.306;2024-02-21T14:11:44;4.80;;;1.00;;
75090;SDS011;63674;48.048;8.306;2024-02-21T14:14:13;9.43;;;3.75;;
75090;SDS011;63674;48.048;8.306;2024-02-21T14:16:44;5.68;;;1.38;;
75090;SDS011;63674;48.048;8.306;2024-02-21T14:19:14;5.30;;;1.53;;
75090;SDS011;63674;48.048;8.306;2024-02-21T14:21:44;3.53;;;0.73;;
75090;SDS011;63674;48.048;8.306;2024-02-21T14:24:12;4.43;;;1.13;;
75090;SDS011;63674;48.048;8.306;2024-02-21T14:26:41;4.03;;;1.00;;
75090;SDS011;63674;48.048;8.306;2024-02-21T14:29:09;4.10;;;1.30;;
75090;SDS011;63674;48.048;8.306;2024-02-21T14:31:39;4.60;;;1.10;;
75090;SDS011;63674;48.048;8.306;2024-02-21T14:34:10;3.85;;;0.85;;
75090;SDS011;63674;48.048;8.306;2024-02-21T14:36:39;4.28;;;1.08;;
75090;SDS011;63674;48.048;8.306;2024-02-21T14:39:08;3.72;;;1.00;;
75090;SDS011;63674;48.048;8.306;2024-02-21T14:41:36;4.32;;;0.93;;
75090;SDS011;63674;48.048;8.306;2024-02-21T14:44:06;3.20;;;0.70;;
75090;SDS011;63674;48.048;8.306;2024-02-21T14:46:36;3.75;;;0.80;;
75090;SDS011;63674;48.048;8.306;2024-02-21T14:49:05;3.38;;;0.88;;
75090;SDS011;63674;48.048;8.306;2024-02-21T14:51:36;3.45;;;0.70;;
75090;SDS011;63674;48.048;8.306;2024-02-21T14:54:04;3.38;;;0.68;;
75090;SDS011;63674;48.048;8.306;2024-02-21T14:56:33;3.20;;;0.70;;
75090;SDS011;63674;48.048;8.306;2024-02-21T14:59:01;3.92;;;0.90;;
75090;SDS011;63674;48.048;8.306;2024-02-21T15:01:40;3.45;;;0.68;;
75090;SDS011;63674;48.048;8.306;2024-02-21T15:04:09;4.03;;;0.73;;